Terminal Aerodrome Forecast
Issued by NWS

Home | Current Version | Previous Version | Graphics & Text | Print | Product List | Glossary On
Versions: 1 2 3 4 5 6 7 8 9 10 11 12 13 14 15 16 17 18
447
FTUS43 KBIS 201735
TAFMOT
TAF
KMOT 201735Z 2018/2118 24019G27KT P6SM BKN200
     FM202000 29026G39KT P6SM FEW020
     FM210900 30020G29KT P6SM BKN030
     FM211500 30012G20KT P6SM SCT030=

USA.gov is the U.S. government's official web portal to all federal, state and local government web resources and services.